sensor_id;sensor_type;location;lat;lon;timestamp;temperature;humidity
66610;DHT22;53468;48.276;14.416;2023-12-29T00:01:54;3.40;94.70
66610;DHT22;53468;48.276;14.416;2023-12-29T00:07:02;3.50;94.70
66610;DHT22;53468;48.276;14.416;2023-12-29T00:12:07;3.50;94.50
66610;DHT22;53468;48.276;14.416;2023-12-29T00:17:11;3.50;94.40
66610;DHT22;53468;48.276;14.416;2023-12-29T00:22:16;3.50;94.40
66610;DHT22;53468;48.276;14.416;2023-12-29T00:27:20;3.50;94.50
66610;DHT22;53468;48.276;14.416;2023-12-29T00:32:25;3.60;94.60
66610;DHT22;53468;48.276;14.416;2023-12-29T00:37:31;3.70;94.60
66610;DHT22;53468;48.276;14.416;2023-12-29T00:42:37;3.70;94.60
66610;DHT22;53468;48.276;14.416;2023-12-29T00:47:44;3.80;94.50
66610;DHT22;53468;48.276;14.416;2023-12-29T00:52:51;3.80;94.50
66610;DHT22;53468;48.276;14.416;2023-12-29T00:57:56;3.80;94.40
66610;DHT22;53468;48.276;14.416;2023-12-29T01:03:02;3.90;94.40
66610;DHT22;53468;48.276;14.416;2023-12-29T01:08:10;4.00;94.50
66610;DHT22;53468;48.276;14.416;2023-12-29T01:13:15;4.00;94.40
66610;DHT22;53468;48.276;14.416;2023-12-29T01:18:21;4.10;94.30
66610;DHT22;53468;48.276;14.416;2023-12-29T01:23:35;4.10;94.30
66610;DHT22;53468;48.276;14.416;2023-12-29T01:28:54;4.10;94.20
66610;DHT22;53468;48.276;14.416;2023-12-29T01:34:01;4.20;94.20
66610;DHT22;53468;48.276;14.416;2023-12-29T01:39:11;4.20;94.00
66610;DHT22;53468;48.276;14.416;2023-12-29T01:44:22;4.30;93.90
66610;DHT22;53468;48.276;14.416;2023-12-29T01:49:30;4.40;94.00
66610;DHT22;53468;48.276;14.416;2023-12-29T01:54:42;4.30;93.80
66610;DHT22;53468;48.276;14.416;2023-12-29T01:59:48;4.40;93.80
66610;DHT22;53468;48.276;14.416;2023-12-29T02:04:54;4.30;93.70
66610;DHT22;53468;48.276;14.416;2023-12-29T02:10:11;4.40;93.60
66610;DHT22;53468;48.276;14.416;2023-12-29T02:15:17;4.40;93.80
66610;DHT22;53468;48.276;14.416;2023-12-29T02:20:24;4.40;93.80
66610;DHT22;53468;48.276;14.416;2023-12-29T02:25:35;4.40;93.60
66610;DHT22;53468;48.276;14.416;2023-12-29T02:30:44;4.30;93.30
66610;DHT22;53468;48.276;14.416;2023-12-29T02:35:56;4.20;93.20
66610;DHT22;53468;48.276;14.416;2023-12-29T02:41:06;4.20;93.20
66610;DHT22;53468;48.276;14.416;2023-12-29T02:46:11;4.20;93.40
66610;DHT22;53468;48.276;14.416;2023-12-29T02:51:16;4.20;93.40
66610;DHT22;53468;48.276;14.416;2023-12-29T02:56:34;4.10;93.20
66610;DHT22;53468;48.276;14.416;2023-12-29T03:01:40;4.10;93.30
66610;DHT22;53468;48.276;14.416;2023-12-29T03:06:53;4.10;93.40
66610;DHT22;53468;48.276;14.416;2023-12-29T03:12:14;4.10;93.30
66610;DHT22;53468;48.276;14.416;2023-12-29T03:17:20;3.90;92.80
66610;DHT22;53468;48.276;14.416;2023-12-29T03:22:25;3.70;93.10
66610;DHT22;53468;48.276;14.416;2023-12-29T03:27:32;3.60;93.10
66610;DHT22;53468;48.276;14.416;2023-12-29T03:32:37;3.50;92.90
66610;DHT22;53468;48.276;14.416;2023-12-29T03:37:42;3.40;92.70
66610;DHT22;53468;48.276;14.416;2023-12-29T03:42:48;3.20;92.90
66610;DHT22;53468;48.276;14.416;2023-12-29T03:47:51;3.10;92.80
66610;DHT22;53468;48.276;14.416;2023-12-29T03:52:55;3.00;92.70
66610;DHT22;53468;48.276;14.416;2023-12-29T03:57:59;2.90;93.10
66610;DHT22;53468;48.276;14.416;2023-12-29T04:03:04;2.90;93.40
66610;DHT22;53468;48.276;14.416;2023-12-29T04:08:06;2.90;93.70
66610;DHT22;53468;48.276;14.416;2023-12-29T04:13:12;3.00;94.00
66610;DHT22;53468;48.276;14.416;2023-12-29T04:18:15;3.00;94.20
66610;DHT22;53468;48.276;14.416;2023-12-29T04:23:18;3.10;94.20
66610;DHT22;53468;48.276;14.416;2023-12-29T04:28:23;3.20;94.30
66610;DHT22;53468;48.276;14.416;2023-12-29T04:33:26;3.20;94.00
66610;DHT22;53468;48.276;14.416;2023-12-29T04:38:29;3.10;93.80
66610;DHT22;53468;48.276;14.416;2023-12-29T04:43:34;3.00;93.70
66610;DHT22;53468;48.276;14.416;2023-12-29T04:48:37;3.00;93.80
66610;DHT22;53468;48.276;14.416;2023-12-29T04:53:41;2.90;93.70
66610;DHT22;53468;48.276;14.416;2023-12-29T04:58:45;2.80;93.80
66610;DHT22;53468;48.276;14.416;2023-12-29T05:03:48;2.80;93.50
66610;DHT22;53468;48.276;14.416;2023-12-29T05:08:51;2.80;93.90
66610;DHT22;53468;48.276;14.416;2023-12-29T05:13:56;2.70;94.00
66610;DHT22;53468;48.276;14.416;2023-12-29T05:18:59;2.70;93.80
66610;DHT22;53468;48.276;14.416;2023-12-29T05:24:02;2.70;93.60
66610;DHT22;53468;48.276;14.416;2023-12-29T05:29:07;2.70;93.60
66610;DHT22;53468;48.276;14.416;2023-12-29T05:34:09;2.70;93.60
66610;DHT22;53468;48.276;14.416;2023-12-29T05:39:13;2.70;93.80
66610;DHT22;53468;48.276;14.416;2023-12-29T05:44:17;2.80;94.20
66610;DHT22;53468;48.276;14.416;2023-12-29T05:49:24;2.90;94.50
66610;DHT22;53468;48.276;14.416;2023-12-29T05:54:28;3.00;94.50
66610;DHT22;53468;48.276;14.416;2023-12-29T05:59:32;3.00;94.20
66610;DHT22;53468;48.276;14.416;2023-12-29T06:04:36;3.00;94.00
66610;DHT22;53468;48.276;14.416;2023-12-29T06:09:39;3.10;94.20
66610;DHT22;53468;48.276;14.416;2023-12-29T07:41:56;3.90;94.00
66610;DHT22;53468;48.276;14.416;2023-12-29T07:47:20;4.00;94.20
66610;DHT22;53468;48.276;14.416;2023-12-29T07:52:38;4.10;94.00
66610;DHT22;53468;48.276;14.416;2023-12-29T09:25:54;5.90;92.50
66610;DHT22;53468;48.276;14.416;2023-12-29T09:31:35;6.00;92.10
66610;DHT22;53468;48.276;14.416;2023-12-29T09:36:48;6.00;92.20
66610;DHT22;53468;48.276;14.416;2023-12-29T10:42:39;6.80;90.80
66610;DHT22;53468;48.276;14.416;2023-12-29T10:48:54;6.90;90.90
66610;DHT22;53468;48.276;14.416;2023-12-29T10:54:36;7.00;90.70
66610;DHT22;53468;48.276;14.416;2023-12-29T12:34:23;8.30;89.50
66610;DHT22;53468;48.276;14.416;2023-12-29T15:03:38;8.50;86.20
66610;DHT22;53468;48.276;14.416;2023-12-29T15:14:47;8.20;87.10
66610;DHT22;53468;48.276;14.416;2023-12-29T15:20:10;8.10;87.90
66610;DHT22;53468;48.276;14.416;2023-12-29T15:25:38;7.90;87.60
66610;DHT22;53468;48.276;14.416;2023-12-29T15:30:57;7.70;87.50
66610;DHT22;53468;48.276;14.416;2023-12-29T15:36:01;7.60;87.70
66610;DHT22;53468;48.276;14.416;2023-12-29T15:41:04;7.50;88.00
66610;DHT22;53468;48.276;14.416;2023-12-29T15:46:26;7.40;88.40
66610;DHT22;53468;48.276;14.416;2023-12-29T15:51:30;7.30;88.90
66610;DHT22;53468;48.276;14.416;2023-12-29T15:56:35;7.30;89.00
66610;DHT22;53468;48.276;14.416;2023-12-29T16:01:42;7.30;89.30
66610;DHT22;53468;48.276;14.416;2023-12-29T16:07:03;7.20;89.20
66610;DHT22;53468;48.276;14.416;2023-12-29T16:12:07;7.20;89.20
66610;DHT22;53468;48.276;14.416;2023-12-29T16:17:11;7.10;89.10
66610;DHT22;53468;48.276;14.416;2023-12-29T16:22:13;7.00;89.80
66610;DHT22;53468;48.276;14.416;2023-12-29T16:27:18;6.90;90.00
66610;DHT22;53468;48.276;14.416;2023-12-29T16:32:23;6.90;90.20
66610;DHT22;53468;48.276;14.416;2023-12-29T16:37:28;7.00;90.40
66610;DHT22;53468;48.276;14.416;2023-12-29T16:42:33;7.00;90.40
66610;DHT22;53468;48.276;14.416;2023-12-29T16:47:39;7.00;90.50
66610;DHT22;53468;48.276;14.416;2023-12-29T16:52:42;7.00;90.60
66610;DHT22;53468;48.276;14.416;2023-12-29T16:57:45;7.00;90.80
66610;DHT22;53468;48.276;14.416;2023-12-29T17:02:48;7.00;90.70
66610;DHT22;53468;48.276;14.416;2023-12-29T17:07:51;7.00;90.40
66610;DHT22;53468;48.276;14.416;2023-12-29T17:12:54;7.00;90.50
66610;DHT22;53468;48.276;14.416;2023-12-29T17:17:58;6.90;90.40
66610;DHT22;53468;48.276;14.416;2023-12-29T17:23:00;6.90;90.50
66610;DHT22;53468;48.276;14.416;2023-12-29T17:28:04;6.90;90.40
66610;DHT22;53468;48.276;14.416;2023-12-29T17:33:09;6.80;90.40
66610;DHT22;53468;48.276;14.416;2023-12-29T17:38:12;6.80;90.60
66610;DHT22;53468;48.276;14.416;2023-12-29T17:43:15;6.70;90.60
66610;DHT22;53468;48.276;14.416;2023-12-29T17:48:20;6.60;90.60
66610;DHT22;53468;48.276;14.416;2023-12-29T17:53:24;6.50;90.50
66610;DHT22;53468;48.276;14.416;2023-12-29T17:58:29;6.40;90.40
66610;DHT22;53468;48.276;14.416;2023-12-29T18:03:41;6.30;90.80
66610;DHT22;53468;48.276;14.416;2023-12-29T18:08:48;6.20;90.70
66610;DHT22;53468;48.276;14.416;2023-12-29T18:13:57;6.20;91.00
66610;DHT22;53468;48.276;14.416;2023-12-29T18:19:02;6.20;91.10
66610;DHT22;53468;48.276;14.416;2023-12-29T18:24:06;6.10;91.10
66610;DHT22;53468;48.276;14.416;2023-12-29T18:29:12;6.10;91.40
66610;DHT22;53468;48.276;14.416;2023-12-29T18:34:18;6.10;91.60
66610;DHT22;53468;48.276;14.416;2023-12-29T18:39:21;6.00;91.60
66610;DHT22;53468;48.276;14.416;2023-12-29T18:44:29;6.00;91.60
66610;DHT22;53468;48.276;14.416;2023-12-29T18:49:44;6.00;91.70
66610;DHT22;53468;48.276;14.416;2023-12-29T19:01:17;6.10;91.70
66610;DHT22;53468;48.276;14.416;2023-12-29T19:06:35;6.10;91.70
66610;DHT22;53468;48.276;14.416;2023-12-29T19:11:49;6.20;91.70
66610;DHT22;53468;48.276;14.416;2023-12-29T19:17:22;6.20;91.50
66610;DHT22;53468;48.276;14.416;2023-12-29T19:22:42;6.30;91.30
66610;DHT22;53468;48.276;14.416;2023-12-29T19:28:20;6.30;91.30
66610;DHT22;53468;48.276;14.416;2023-12-29T19:33:40;6.30;91.20
66610;DHT22;53468;48.276;14.416;2023-12-29T19:38:50;6.30;91.20
66610;DHT22;53468;48.276;14.416;2023-12-29T19:43:56;6.30;91.00
66610;DHT22;53468;48.276;14.416;2023-12-29T19:49:07;6.40;90.90
66610;DHT22;53468;48.276;14.416;2023-12-29T19:54:13;6.40;91.00
66610;DHT22;53468;48.276;14.416;2023-12-29T19:59:18;6.30;91.10
66610;DHT22;53468;48.276;14.416;2023-12-29T20:10:39;6.30;91.00
66610;DHT22;53468;48.276;14.416;2023-12-29T20:16:05;6.30;91.20
66610;DHT22;53468;48.276;14.416;2023-12-29T20:21:29;6.30;91.20
66610;DHT22;53468;48.276;14.416;2023-12-29T20:27:16;6.20;91.20
66610;DHT22;53468;48.276;14.416;2023-12-29T20:38:42;6.30;91.30
66610;DHT22;53468;48.276;14.416;2023-12-29T20:50:35;6.40;91.30
66610;DHT22;53468;48.276;14.416;2023-12-29T20:56:00;6.30;91.30
66610;DHT22;53468;48.276;14.416;2023-12-29T21:07:34;6.30;91.30
66610;DHT22;53468;48.276;14.416;2023-12-29T21:12:52;6.30;91.40
66610;DHT22;53468;48.276;14.416;2023-12-29T21:23:59;6.40;91.50
66610;DHT22;53468;48.276;14.416;2023-12-29T21:29:06;6.40;91.50
66610;DHT22;53468;48.276;14.416;2023-12-29T21:34:15;6.40;91.50
66610;DHT22;53468;48.276;14.416;2023-12-29T21:39:56;6.40;91.40
66610;DHT22;53468;48.276;14.416;2023-12-29T21:45:10;6.40;91.20
66610;DHT22;53468;48.276;14.416;2023-12-29T21:50:34;6.30;91.10
66610;DHT22;53468;48.276;14.416;2023-12-29T21:55:52;6.10;91.00
66610;DHT22;53468;48.276;14.416;2023-12-29T22:01:28;6.10;91.00
66610;DHT22;53468;48.276;14.416;2023-12-29T22:06:43;6.00;91.40
66610;DHT22;53468;48.276;14.416;2023-12-29T22:11:54;6.00;91.60
66610;DHT22;53468;48.276;14.416;2023-12-29T22:17:01;6.00;91.40
66610;DHT22;53468;48.276;14.416;2023-12-29T22:22:09;5.90;91.40
66610;DHT22;53468;48.276;14.416;2023-12-29T22:27:26;5.90;91.60
66610;DHT22;53468;48.276;14.416;2023-12-29T22:32:40;5.90;91.80
66610;DHT22;53468;48.276;14.416;2023-12-29T22:38:02;5.90;91.80
66610;DHT22;53468;48.276;14.416;2023-12-29T22:43:27;5.90;92.10
66610;DHT22;53468;48.276;14.416;2023-12-29T22:48:40;6.00;92.00
66610;DHT22;53468;48.276;14.416;2023-12-29T22:54:01;6.00;92.10
66610;DHT22;53468;48.276;14.416;2023-12-29T22:59:29;6.00;92.00
66610;DHT22;53468;48.276;14.416;2023-12-29T23:04:49;6.10;92.00
66610;DHT22;53468;48.276;14.416;2023-12-29T23:10:02;6.10;92.00
66610;DHT22;53468;48.276;14.416;2023-12-29T23:15:19;6.10;92.00
66610;DHT22;53468;48.276;14.416;2023-12-29T23:20:36;6.10;92.00
66610;DHT22;53468;48.276;14.416;2023-12-29T23:25:49;6.10;92.30
66610;DHT22;53468;48.276;14.416;2023-12-29T23:31:02;6.10;92.30
66610;DHT22;53468;48.276;14.416;2023-12-29T23:36:29;6.10;92.20
66610;DHT22;53468;48.276;14.416;2023-12-29T23:41:47;6.10;92.20
66610;DHT22;53468;48.276;14.416;2023-12-29T23:47:18;6.10;92.20
66610;DHT22;53468;48.276;14.416;2023-12-29T23:52:36;6.10;92.20
66610;DHT22;53468;48.276;14.416;2023-12-29T23:57:51;6.10;92.20
